sensor_id;sensor_type;location;lat;lon;timestamp;P1;durP1;ratioP1;P2;durP2;ratioP2
2029;SDS011;1020;48.854;8.830;2022-09-09T00:02:23;3.97;;;1.60;;
2029;SDS011;1020;48.854;8.830;2022-09-09T00:04:57;3.00;;;1.80;;
2029;SDS011;1020;48.854;8.830;2022-09-09T00:07:29;2.00;;;1.40;;
2029;SDS011;1020;48.854;8.830;2022-09-09T00:10:05;5.13;;;1.87;;
2029;SDS011;1020;48.854;8.830;2022-09-09T00:12:42;2.33;;;1.40;;
2029;SDS011;1020;48.854;8.830;2022-09-09T00:15:20;2.33;;;1.50;;
2029;SDS011;1020;48.854;8.830;2022-09-09T00:17:50;3.93;;;1.77;;
2029;SDS011;1020;48.854;8.830;2022-09-09T00:20:24;2.90;;;1.80;;
2029;SDS011;1020;48.854;8.830;2022-09-09T00:23:00;1.90;;;1.60;;
2029;SDS011;1020;48.854;8.830;2022-09-09T00:25:37;1.83;;;1.50;;
2029;SDS011;1020;48.854;8.830;2022-09-09T00:28:10;1.20;;;1.10;;
2029;SDS011;1020;48.854;8.830;2022-09-09T00:30:42;1.80;;;1.20;;
2029;SDS011;1020;48.854;8.830;2022-09-09T00:33:13;2.13;;;1.30;;
2029;SDS011;1020;48.854;8.830;2022-09-09T00:35:44;3.73;;;1.57;;
2029;SDS011;1020;48.854;8.830;2022-09-09T00:38:14;3.73;;;1.40;;
2029;SDS011;1020;48.854;8.830;2022-09-09T00:40:45;1.57;;;1.30;;
2029;SDS011;1020;48.854;8.830;2022-09-09T00:43:21;7.13;;;2.00;;
2029;SDS011;1020;48.854;8.830;2022-09-09T00:45:56;2.93;;;1.47;;
2029;SDS011;1020;48.854;8.830;2022-09-09T00:48:56;3.33;;;2.10;;
2029;SDS011;1020;48.854;8.830;2022-09-09T00:51:32;6.17;;;2.00;;
2029;SDS011;1020;48.854;8.830;2022-09-09T00:54:11;2.87;;;1.60;;
2029;SDS011;1020;48.854;8.830;2022-09-09T00:56:45;1.30;;;1.10;;
2029;SDS011;1020;48.854;8.830;2022-09-09T00:59:24;1.47;;;1.30;;
2029;SDS011;1020;48.854;8.830;2022-09-09T01:01:55;2.50;;;1.50;;
2029;SDS011;1020;48.854;8.830;2022-09-09T01:04:23;4.80;;;1.90;;
2029;SDS011;1020;48.854;8.830;2022-09-09T01:06:58;1.43;;;1.10;;
2029;SDS011;1020;48.854;8.830;2022-09-09T01:09:37;4.30;;;2.17;;
2029;SDS011;1020;48.854;8.830;2022-09-09T01:12:12;1.80;;;1.60;;
2029;SDS011;1020;48.854;8.830;2022-09-09T01:14:42;3.93;;;1.90;;
2029;SDS011;1020;48.854;8.830;2022-09-09T01:17:14;1.80;;;1.70;;
2029;SDS011;1020;48.854;8.830;2022-09-09T01:19:47;7.40;;;1.60;;
2029;SDS011;1020;48.854;8.830;2022-09-09T01:22:26;1.83;;;1.60;;
2029;SDS011;1020;48.854;8.830;2022-09-09T01:25:09;2.63;;;1.73;;
2029;SDS011;1020;48.854;8.830;2022-09-09T01:27:55;2.00;;;1.40;;
2029;SDS011;1020;48.854;8.830;2022-09-09T01:30:24;5.57;;;1.50;;
2029;SDS011;1020;48.854;8.830;2022-09-09T01:32:53;1.23;;;1.10;;
2029;SDS011;1020;48.854;8.830;2022-09-09T01:35:27;1.33;;;1.23;;
2029;SDS011;1020;48.854;8.830;2022-09-09T01:38:02;3.63;;;1.47;;
2029;SDS011;1020;48.854;8.830;2022-09-09T01:40:30;4.00;;;2.00;;
2029;SDS011;1020;48.854;8.830;2022-09-09T01:43:00;1.60;;;1.07;;
2029;SDS011;1020;48.854;8.830;2022-09-09T01:45:27;3.43;;;1.17;;
2029;SDS011;1020;48.854;8.830;2022-09-09T01:47:54;2.87;;;1.10;;
2029;SDS011;1020;48.854;8.830;2022-09-09T01:50:21;1.70;;;0.80;;
2029;SDS011;1020;48.854;8.830;2022-09-09T01:52:50;2.80;;;1.30;;
2029;SDS011;1020;48.854;8.830;2022-09-09T01:55:23;1.40;;;1.00;;
2029;SDS011;1020;48.854;8.830;2022-09-09T01:57:56;3.03;;;0.87;;
2029;SDS011;1020;48.854;8.830;2022-09-09T02:00:36;2.00;;;1.10;;
2029;SDS011;1020;48.854;8.830;2022-09-09T02:03:08;2.20;;;1.30;;
2029;SDS011;1020;48.854;8.830;2022-09-09T02:05:45;3.03;;;1.17;;
2029;SDS011;1020;48.854;8.830;2022-09-09T02:08:20;1.13;;;0.77;;
2029;SDS011;1020;48.854;8.830;2022-09-09T02:10:50;2.70;;;1.20;;
2029;SDS011;1020;48.854;8.830;2022-09-09T02:13:23;2.60;;;1.20;;
2029;SDS011;1020;48.854;8.830;2022-09-09T02:15:52;2.10;;;1.17;;
2029;SDS011;1020;48.854;8.830;2022-09-09T02:18:25;3.23;;;1.40;;
2029;SDS011;1020;48.854;8.830;2022-09-09T02:20:55;1.70;;;1.13;;
2029;SDS011;1020;48.854;8.830;2022-09-09T02:23:23;1.60;;;0.77;;
2029;SDS011;1020;48.854;8.830;2022-09-09T02:25:50;1.80;;;1.00;;
2029;SDS011;1020;48.854;8.830;2022-09-09T02:28:19;2.00;;;1.17;;
2029;SDS011;1020;48.854;8.830;2022-09-09T02:30:52;2.20;;;1.20;;
2029;SDS011;1020;48.854;8.830;2022-09-09T02:33:20;1.60;;;1.40;;
2029;SDS011;1020;48.854;8.830;2022-09-09T02:35:51;2.43;;;1.30;;
2029;SDS011;1020;48.854;8.830;2022-09-09T02:38:21;2.03;;;1.33;;
2029;SDS011;1020;48.854;8.830;2022-09-09T02:40:52;2.87;;;1.13;;
2029;SDS011;1020;48.854;8.830;2022-09-09T02:43:19;2.40;;;1.10;;
2029;SDS011;1020;48.854;8.830;2022-09-09T02:45:48;2.07;;;1.37;;
2029;SDS011;1020;48.854;8.830;2022-09-09T02:48:21;2.80;;;1.37;;
2029;SDS011;1020;48.854;8.830;2022-09-09T02:50:56;1.70;;;1.23;;
2029;SDS011;1020;48.854;8.830;2022-09-09T02:53:33;1.60;;;1.00;;
2029;SDS011;1020;48.854;8.830;2022-09-09T02:56:07;3.20;;;1.60;;
2029;SDS011;1020;48.854;8.830;2022-09-09T02:58:39;3.10;;;1.40;;
2029;SDS011;1020;48.854;8.830;2022-09-09T03:01:08;1.70;;;1.13;;
2029;SDS011;1020;48.854;8.830;2022-09-09T03:03:36;4.47;;;1.30;;
2029;SDS011;1020;48.854;8.830;2022-09-09T03:06:03;6.03;;;1.40;;
2029;SDS011;1020;48.854;8.830;2022-09-09T03:08:30;2.17;;;1.40;;
2029;SDS011;1020;48.854;8.830;2022-09-09T03:10:58;1.77;;;1.20;;
2029;SDS011;1020;48.854;8.830;2022-09-09T03:13:26;2.33;;;1.27;;
2029;SDS011;1020;48.854;8.830;2022-09-09T03:15:53;2.23;;;1.40;;
2029;SDS011;1020;48.854;8.830;2022-09-09T03:18:21;1.30;;;1.20;;
2029;SDS011;1020;48.854;8.830;2022-09-09T03:20:48;1.70;;;1.60;;
2029;SDS011;1020;48.854;8.830;2022-09-09T03:23:16;3.67;;;1.83;;
2029;SDS011;1020;48.854;8.830;2022-09-09T03:25:46;2.93;;;1.47;;
2029;SDS011;1020;48.854;8.830;2022-09-09T03:28:13;2.10;;;1.20;;
2029;SDS011;1020;48.854;8.830;2022-09-09T03:30:40;1.77;;;1.10;;
2029;SDS011;1020;48.854;8.830;2022-09-09T03:33:07;2.10;;;1.10;;
2029;SDS011;1020;48.854;8.830;2022-09-09T03:35:35;8.47;;;1.70;;
2029;SDS011;1020;48.854;8.830;2022-09-09T03:38:02;1.87;;;1.30;;
2029;SDS011;1020;48.854;8.830;2022-09-09T03:40:29;1.23;;;1.00;;
2029;SDS011;1020;48.854;8.830;2022-09-09T03:42:56;1.10;;;0.97;;
2029;SDS011;1020;48.854;8.830;2022-09-09T03:45:22;2.33;;;1.40;;
2029;SDS011;1020;48.854;8.830;2022-09-09T03:47:49;1.40;;;0.83;;
2029;SDS011;1020;48.854;8.830;2022-09-09T03:50:16;1.43;;;1.10;;
2029;SDS011;1020;48.854;8.830;2022-09-09T03:52:44;1.43;;;0.90;;
2029;SDS011;1020;48.854;8.830;2022-09-09T03:55:11;2.10;;;1.07;;
2029;SDS011;1020;48.854;8.830;2022-09-09T03:57:38;1.70;;;1.10;;
2029;SDS011;1020;48.854;8.830;2022-09-09T04:00:06;2.77;;;1.73;;
2029;SDS011;1020;48.854;8.830;2022-09-09T04:02:34;1.70;;;1.13;;
2029;SDS011;1020;48.854;8.830;2022-09-09T04:05:00;1.00;;;1.00;;
2029;SDS011;1020;48.854;8.830;2022-09-09T04:07:27;1.10;;;0.80;;
2029;SDS011;1020;48.854;8.830;2022-09-09T04:09:55;1.70;;;1.00;;
2029;SDS011;1020;48.854;8.830;2022-09-09T04:12:22;2.70;;;1.13;;
2029;SDS011;1020;48.854;8.830;2022-09-09T04:14:49;1.17;;;0.80;;
2029;SDS011;1020;48.854;8.830;2022-09-09T04:17:16;0.80;;;0.80;;
2029;SDS011;1020;48.854;8.830;2022-09-09T04:19:43;0.83;;;0.83;;
2029;SDS011;1020;48.854;8.830;2022-09-09T04:22:10;1.57;;;1.07;;
2029;SDS011;1020;48.854;8.830;2022-09-09T04:24:36;1.40;;;0.80;;
2029;SDS011;1020;48.854;8.830;2022-09-09T04:27:04;1.90;;;0.83;;
2029;SDS011;1020;48.854;8.830;2022-09-09T04:29:31;2.07;;;1.60;;
2029;SDS011;1020;48.854;8.830;2022-09-09T04:31:58;1.87;;;1.07;;
2029;SDS011;1020;48.854;8.830;2022-09-09T04:34:25;1.00;;;0.90;;
2029;SDS011;1020;48.854;8.830;2022-09-09T04:36:51;3.23;;;1.27;;
2029;SDS011;1020;48.854;8.830;2022-09-09T04:39:19;0.97;;;0.90;;
2029;SDS011;1020;48.854;8.830;2022-09-09T04:41:46;1.27;;;0.90;;
2029;SDS011;1020;48.854;8.830;2022-09-09T04:44:14;2.20;;;1.20;;
2029;SDS011;1020;48.854;8.830;2022-09-09T04:46:41;1.40;;;1.30;;
2029;SDS011;1020;48.854;8.830;2022-09-09T04:49:08;0.97;;;0.87;;
2029;SDS011;1020;48.854;8.830;2022-09-09T04:51:35;1.73;;;1.20;;
2029;SDS011;1020;48.854;8.830;2022-09-09T04:54:01;1.27;;;1.00;;
2029;SDS011;1020;48.854;8.830;2022-09-09T04:56:28;2.27;;;1.27;;
2029;SDS011;1020;48.854;8.830;2022-09-09T04:58:55;1.83;;;1.23;;
2029;SDS011;1020;48.854;8.830;2022-09-09T05:01:23;1.50;;;1.00;;
2029;SDS011;1020;48.854;8.830;2022-09-09T05:03:50;1.33;;;0.63;;
2029;SDS011;1020;48.854;8.830;2022-09-09T05:06:18;1.10;;;0.93;;
2029;SDS011;1020;48.854;8.830;2022-09-09T05:08:46;2.83;;;1.10;;
2029;SDS011;1020;48.854;8.830;2022-09-09T05:11:18;3.40;;;1.20;;
2029;SDS011;1020;48.854;8.830;2022-09-09T05:13:46;1.00;;;1.00;;
2029;SDS011;1020;48.854;8.830;2022-09-09T05:16:13;1.73;;;1.20;;
2029;SDS011;1020;48.854;8.830;2022-09-09T05:18:42;2.80;;;1.63;;
2029;SDS011;1020;48.854;8.830;2022-09-09T05:21:09;1.77;;;1.20;;
2029;SDS011;1020;48.854;8.830;2022-09-09T05:23:36;2.77;;;1.23;;
2029;SDS011;1020;48.854;8.830;2022-09-09T05:26:03;3.60;;;1.30;;
2029;SDS011;1020;48.854;8.830;2022-09-09T05:28:31;1.90;;;1.20;;
2029;SDS011;1020;48.854;8.830;2022-09-09T05:31:00;3.50;;;1.47;;
2029;SDS011;1020;48.854;8.830;2022-09-09T05:33:30;1.27;;;1.17;;
2029;SDS011;1020;48.854;8.830;2022-09-09T05:36:00;2.13;;;1.07;;
2029;SDS011;1020;48.854;8.830;2022-09-09T05:38:28;1.13;;;1.03;;
2029;SDS011;1020;48.854;8.830;2022-09-09T05:40:55;3.43;;;1.40;;
2029;SDS011;1020;48.854;8.830;2022-09-09T05:43:22;3.50;;;1.30;;
2029;SDS011;1020;48.854;8.830;2022-09-09T05:45:58;1.10;;;1.10;;
2029;SDS011;1020;48.854;8.830;2022-09-09T05:48:27;1.40;;;1.30;;
2029;SDS011;1020;48.854;8.830;2022-09-09T05:50:54;1.50;;;1.00;;
2029;SDS011;1020;48.854;8.830;2022-09-09T05:53:22;1.83;;;1.13;;
2029;SDS011;1020;48.854;8.830;2022-09-09T05:55:49;1.83;;;1.10;;
2029;SDS011;1020;48.854;8.830;2022-09-09T05:58:16;2.17;;;1.00;;
2029;SDS011;1020;48.854;8.830;2022-09-09T06:00:43;1.23;;;1.13;;
2029;SDS011;1020;48.854;8.830;2022-09-09T06:03:10;3.57;;;1.80;;
2029;SDS011;1020;48.854;8.830;2022-09-09T06:05:37;4.33;;;1.60;;
2029;SDS011;1020;48.854;8.830;2022-09-09T06:08:04;3.30;;;1.50;;
2029;SDS011;1020;48.854;8.830;2022-09-09T06:10:32;2.40;;;1.20;;
2029;SDS011;1020;48.854;8.830;2022-09-09T06:12:59;1.30;;;1.20;;
2029;SDS011;1020;48.854;8.830;2022-09-09T06:15:26;2.43;;;1.23;;
2029;SDS011;1020;48.854;8.830;2022-09-09T06:17:54;3.30;;;1.20;;
2029;SDS011;1020;48.854;8.830;2022-09-09T06:20:21;2.53;;;1.17;;
2029;SDS011;1020;48.854;8.830;2022-09-09T06:22:48;1.03;;;1.00;;
2029;SDS011;1020;48.854;8.830;2022-09-09T06:25:14;1.90;;;1.40;;
2029;SDS011;1020;48.854;8.830;2022-09-09T06:27:47;1.90;;;1.40;;
2029;SDS011;1020;48.854;8.830;2022-09-09T06:30:15;2.13;;;1.37;;
2029;SDS011;1020;48.854;8.830;2022-09-09T06:32:43;1.30;;;1.20;;
2029;SDS011;1020;48.854;8.830;2022-09-09T06:35:10;2.30;;;0.90;;
2029;SDS011;1020;48.854;8.830;2022-09-09T06:37:36;3.80;;;1.50;;
2029;SDS011;1020;48.854;8.830;2022-09-09T06:40:03;1.23;;;0.90;;
2029;SDS011;1020;48.854;8.830;2022-09-09T06:42:31;2.20;;;1.50;;
2029;SDS011;1020;48.854;8.830;2022-09-09T06:44:59;1.17;;;0.90;;
2029;SDS011;1020;48.854;8.830;2022-09-09T06:47:27;5.60;;;1.17;;
2029;SDS011;1020;48.854;8.830;2022-09-09T06:49:54;1.03;;;0.97;;
2029;SDS011;1020;48.854;8.830;2022-09-09T06:52:21;3.53;;;1.37;;
2029;SDS011;1020;48.854;8.830;2022-09-09T06:54:49;2.93;;;1.10;;
2029;SDS011;1020;48.854;8.830;2022-09-09T06:57:16;1.77;;;0.97;;
2029;SDS011;1020;48.854;8.830;2022-09-09T06:59:43;1.13;;;0.90;;
2029;SDS011;1020;48.854;8.830;2022-09-09T07:02:11;1.33;;;0.80;;
2029;SDS011;1020;48.854;8.830;2022-09-09T07:04:38;1.40;;;0.90;;
2029;SDS011;1020;48.854;8.830;2022-09-09T07:07:04;1.43;;;0.90;;
2029;SDS011;1020;48.854;8.830;2022-09-09T07:09:33;3.60;;;0.73;;
2029;SDS011;1020;48.854;8.830;2022-09-09T07:12:00;1.70;;;1.00;;
2029;SDS011;1020;48.854;8.830;2022-09-09T07:14:27;1.60;;;0.90;;
2029;SDS011;1020;48.854;8.830;2022-09-09T07:16:54;2.00;;;0.70;;
2029;SDS011;1020;48.854;8.830;2022-09-09T07:19:22;1.23;;;0.63;;
2029;SDS011;1020;48.854;8.830;2022-09-09T07:21:49;1.60;;;1.00;;
2029;SDS011;1020;48.854;8.830;2022-09-09T07:24:15;0.77;;;0.70;;
2029;SDS011;1020;48.854;8.830;2022-09-09T07:26:42;2.03;;;1.10;;
2029;SDS011;1020;48.854;8.830;2022-09-09T07:29:11;1.67;;;0.83;;
2029;SDS011;1020;48.854;8.830;2022-09-09T07:31:39;1.37;;;1.20;;
2029;SDS011;1020;48.854;8.830;2022-09-09T07:34:06;1.93;;;1.30;;
2029;SDS011;1020;48.854;8.830;2022-09-09T07:36:35;2.33;;;0.90;;
2029;SDS011;1020;48.854;8.830;2022-09-09T07:39:03;1.60;;;0.97;;
2029;SDS011;1020;48.854;8.830;2022-09-09T07:41:33;1.17;;;0.87;;
2029;SDS011;1020;48.854;8.830;2022-09-09T07:44:03;1.70;;;0.93;;
2029;SDS011;1020;48.854;8.830;2022-09-09T07:46:31;2.00;;;1.00;;
2029;SDS011;1020;48.854;8.830;2022-09-09T07:48:59;1.27;;;0.60;;
2029;SDS011;1020;48.854;8.830;2022-09-09T07:51:26;0.87;;;0.83;;
2029;SDS011;1020;48.854;8.830;2022-09-09T07:53:56;5.20;;;0.80;;
2029;SDS011;1020;48.854;8.830;2022-09-09T07:56:24;0.80;;;0.80;;
2029;SDS011;1020;48.854;8.830;2022-09-09T07:58:52;2.13;;;0.80;;
2029;SDS011;1020;48.854;8.830;2022-09-09T08:01:21;1.43;;;1.33;;
2029;SDS011;1020;48.854;8.830;2022-09-09T08:03:52;3.27;;;0.80;;
2029;SDS011;1020;48.854;8.830;2022-09-09T08:06:21;1.37;;;0.70;;
2029;SDS011;1020;48.854;8.830;2022-09-09T08:08:50;3.33;;;1.20;;
2029;SDS011;1020;48.854;8.830;2022-09-09T08:11:18;0.97;;;0.83;;
2029;SDS011;1020;48.854;8.830;2022-09-09T08:13:45;1.00;;;0.90;;
2029;SDS011;1020;48.854;8.830;2022-09-09T08:16:14;1.73;;;0.70;;
2029;SDS011;1020;48.854;8.830;2022-09-09T08:18:42;0.60;;;0.60;;
2029;SDS011;1020;48.854;8.830;2022-09-09T08:21:10;1.50;;;0.90;;
2029;SDS011;1020;48.854;8.830;2022-09-09T08:23:39;2.10;;;1.03;;
2029;SDS011;1020;48.854;8.830;2022-09-09T08:26:07;2.20;;;1.00;;
2029;SDS011;1020;48.854;8.830;2022-09-09T08:28:38;0.97;;;0.83;;
2029;SDS011;1020;48.854;8.830;2022-09-09T08:31:09;2.60;;;0.87;;
2029;SDS011;1020;48.854;8.830;2022-09-09T08:33:38;1.43;;;0.90;;
2029;SDS011;1020;48.854;8.830;2022-09-09T08:36:06;1.73;;;1.00;;
2029;SDS011;1020;48.854;8.830;2022-09-09T08:38:35;3.70;;;0.90;;
2029;SDS011;1020;48.854;8.830;2022-09-09T08:44:06;2.07;;;0.93;;
2029;SDS011;1020;48.854;8.830;2022-09-09T08:46:38;3.43;;;1.00;;
2029;SDS011;1020;48.854;8.830;2022-09-09T08:49:16;1.47;;;1.03;;
2029;SDS011;1020;48.854;8.830;2022-09-09T08:51:53;1.73;;;0.80;;
2029;SDS011;1020;48.854;8.830;2022-09-09T08:54:22;2.93;;;0.77;;
2029;SDS011;1020;48.854;8.830;2022-09-09T08:56:50;1.60;;;1.00;;
2029;SDS011;1020;48.854;8.830;2022-09-09T08:59:18;2.20;;;1.00;;
2029;SDS011;1020;48.854;8.830;2022-09-09T09:01:54;3.57;;;1.10;;
2029;SDS011;1020;48.854;8.830;2022-09-09T09:07:33;1.90;;;0.80;;
2029;SDS011;1020;48.854;8.830;2022-09-09T09:10:13;2.30;;;0.93;;
2029;SDS011;1020;48.854;8.830;2022-09-09T09:12:50;0.90;;;0.60;;
2029;SDS011;1020;48.854;8.830;2022-09-09T09:15:19;2.37;;;0.80;;
2029;SDS011;1020;48.854;8.830;2022-09-09T09:17:49;1.00;;;0.77;;
2029;SDS011;1020;48.854;8.830;2022-09-09T09:20:16;3.43;;;0.93;;
2029;SDS011;1020;48.854;8.830;2022-09-09T09:22:48;1.17;;;1.07;;
2029;SDS011;1020;48.854;8.830;2022-09-09T09:25:18;1.80;;;0.73;;
2029;SDS011;1020;48.854;8.830;2022-09-09T09:27:49;3.23;;;0.97;;
2029;SDS011;1020;48.854;8.830;2022-09-09T09:30:25;1.67;;;0.80;;
2029;SDS011;1020;48.854;8.830;2022-09-09T09:32:55;1.20;;;1.10;;
2029;SDS011;1020;48.854;8.830;2022-09-09T09:35:26;1.70;;;0.70;;
2029;SDS011;1020;48.854;8.830;2022-09-09T09:37:52;2.90;;;0.80;;
2029;SDS011;1020;48.854;8.830;2022-09-09T09:40:20;1.30;;;0.70;;
2029;SDS011;1020;48.854;8.830;2022-09-09T09:42:48;3.57;;;1.17;;
2029;SDS011;1020;48.854;8.830;2022-09-09T09:45:20;1.03;;;0.70;;
2029;SDS011;1020;48.854;8.830;2022-09-09T09:48:00;0.93;;;0.70;;
2029;SDS011;1020;48.854;8.830;2022-09-09T09:50:28;1.30;;;0.90;;
2029;SDS011;1020;48.854;8.830;2022-09-09T09:52:56;3.33;;;0.93;;
2029;SDS011;1020;48.854;8.830;2022-09-09T09:55:25;1.77;;;1.00;;
2029;SDS011;1020;48.854;8.830;2022-09-09T09:57:59;3.10;;;1.00;;
2029;SDS011;1020;48.854;8.830;2022-09-09T10:00:29;2.73;;;0.90;;
2029;SDS011;1020;48.854;8.830;2022-09-09T10:02:56;1.30;;;1.20;;
2029;SDS011;1020;48.854;8.830;2022-09-09T10:05:26;2.50;;;0.80;;
2029;SDS011;1020;48.854;8.830;2022-09-09T10:08:01;1.80;;;0.87;;
2029;SDS011;1020;48.854;8.830;2022-09-09T10:10:34;1.70;;;0.93;;
2029;SDS011;1020;48.854;8.830;2022-09-09T10:13:09;2.73;;;0.73;;
2029;SDS011;1020;48.854;8.830;2022-09-09T10:15:44;3.63;;;0.80;;
2029;SDS011;1020;48.854;8.830;2022-09-09T10:18:34;2.70;;;1.10;;
2029;SDS011;1020;48.854;8.830;2022-09-09T10:21:09;3.53;;;0.80;;
2029;SDS011;1020;48.854;8.830;2022-09-09T10:23:51;1.43;;;0.90;;
2029;SDS011;1020;48.854;8.830;2022-09-09T10:26:34;2.47;;;0.90;;
2029;SDS011;1020;48.854;8.830;2022-09-09T10:32:02;1.10;;;0.60;;
2029;SDS011;1020;48.854;8.830;2022-09-09T10:34:42;2.13;;;0.93;;
2029;SDS011;1020;48.854;8.830;2022-09-09T10:37:24;2.20;;;1.00;;
2029;SDS011;1020;48.854;8.830;2022-09-09T10:40:05;1.53;;;0.60;;
2029;SDS011;1020;48.854;8.830;2022-09-09T10:42:46;1.10;;;0.90;;
2029;SDS011;1020;48.854;8.830;2022-09-09T10:45:15;1.53;;;0.60;;
2029;SDS011;1020;48.854;8.830;2022-09-09T10:47:55;1.30;;;0.80;;
2029;SDS011;1020;48.854;8.830;2022-09-09T10:50:42;2.13;;;1.00;;
2029;SDS011;1020;48.854;8.830;2022-09-09T10:53:18;2.40;;;0.77;;
2029;SDS011;1020;48.854;8.830;2022-09-09T10:55:56;1.43;;;0.90;;
2029;SDS011;1020;48.854;8.830;2022-09-09T10:58:28;1.40;;;0.80;;
2029;SDS011;1020;48.854;8.830;2022-09-09T11:01:01;2.07;;;0.87;;
2029;SDS011;1020;48.854;8.830;2022-09-09T11:03:34;1.30;;;1.20;;
2029;SDS011;1020;48.854;8.830;2022-09-09T11:06:05;1.43;;;0.80;;
2029;SDS011;1020;48.854;8.830;2022-09-09T11:08:38;1.07;;;0.97;;
2029;SDS011;1020;48.854;8.830;2022-09-09T11:11:09;1.70;;;1.07;;
2029;SDS011;1020;48.854;8.830;2022-09-09T11:13:42;1.10;;;0.93;;
2029;SDS011;1020;48.854;8.830;2022-09-09T11:16:16;1.27;;;0.80;;
2029;SDS011;1020;48.854;8.830;2022-09-09T11:18:49;3.20;;;1.17;;
2029;SDS011;1020;48.854;8.830;2022-09-09T11:21:20;2.20;;;1.07;;
2029;SDS011;1020;48.854;8.830;2022-09-09T11:23:52;4.43;;;1.53;;
2029;SDS011;1020;48.854;8.830;2022-09-09T11:26:24;3.90;;;1.27;;
2029;SDS011;1020;48.854;8.830;2022-09-09T11:28:59;4.07;;;1.60;;
2029;SDS011;1020;48.854;8.830;2022-09-09T11:31:44;8.63;;;1.10;;
2029;SDS011;1020;48.854;8.830;2022-09-09T11:34:23;2.10;;;0.90;;
2029;SDS011;1020;48.854;8.830;2022-09-09T11:37:05;1.50;;;1.00;;
2029;SDS011;1020;48.854;8.830;2022-09-09T11:39:50;1.00;;;1.00;;
2029;SDS011;1020;48.854;8.830;2022-09-09T11:42:34;1.10;;;1.00;;
2029;SDS011;1020;48.854;8.830;2022-09-09T11:45:15;2.10;;;0.77;;
2029;SDS011;1020;48.854;8.830;2022-09-09T11:47:52;2.27;;;0.90;;
2029;SDS011;1020;48.854;8.830;2022-09-09T11:50:31;2.00;;;0.80;;
2029;SDS011;1020;48.854;8.830;2022-09-09T11:53:18;4.50;;;0.97;;
2029;SDS011;1020;48.854;8.830;2022-09-09T11:55:47;1.77;;;0.70;;
2029;SDS011;1020;48.854;8.830;2022-09-09T11:58:26;1.13;;;0.80;;
2029;SDS011;1020;48.854;8.830;2022-09-09T12:00:57;2.10;;;0.70;;
2029;SDS011;1020;48.854;8.830;2022-09-09T12:03:35;1.70;;;0.70;;
2029;SDS011;1020;48.854;8.830;2022-09-09T12:06:10;1.50;;;0.97;;
2029;SDS011;1020;48.854;8.830;2022-09-09T12:08:41;2.60;;;0.83;;
2029;SDS011;1020;48.854;8.830;2022-09-09T12:11:11;0.90;;;0.70;;
2029;SDS011;1020;48.854;8.830;2022-09-09T12:13:38;1.20;;;0.80;;
2029;SDS011;1020;48.854;8.830;2022-09-09T12:16:26;1.60;;;0.50;;
2029;SDS011;1020;48.854;8.830;2022-09-09T12:19:02;1.50;;;0.70;;
2029;SDS011;1020;48.854;8.830;2022-09-09T12:21:33;1.73;;;0.93;;
2029;SDS011;1020;48.854;8.830;2022-09-09T12:24:06;0.83;;;0.60;;
2029;SDS011;1020;48.854;8.830;2022-09-09T12:26:36;1.50;;;0.60;;
2029;SDS011;1020;48.854;8.830;2022-09-09T12:29:10;2.20;;;0.77;;
2029;SDS011;1020;48.854;8.830;2022-09-09T12:31:44;0.73;;;0.50;;
2029;SDS011;1020;48.854;8.830;2022-09-09T12:34:17;1.27;;;0.60;;
2029;SDS011;1020;48.854;8.830;2022-09-09T12:36:53;0.83;;;0.60;;
2029;SDS011;1020;48.854;8.830;2022-09-09T12:39:26;1.40;;;0.60;;
2029;SDS011;1020;48.854;8.830;2022-09-09T12:41:57;1.27;;;0.93;;
2029;SDS011;1020;48.854;8.830;2022-09-09T12:44:24;0.63;;;0.50;;
2029;SDS011;1020;48.854;8.830;2022-09-09T12:46:53;1.33;;;0.70;;
2029;SDS011;1020;48.854;8.830;2022-09-09T12:49:26;1.33;;;0.60;;
2029;SDS011;1020;48.854;8.830;2022-09-09T12:52:00;0.83;;;0.57;;
2029;SDS011;1020;48.854;8.830;2022-09-09T12:54:30;1.10;;;0.70;;
2029;SDS011;1020;48.854;8.830;2022-09-09T12:56:57;1.03;;;0.60;;
2029;SDS011;1020;48.854;8.830;2022-09-09T12:59:25;1.43;;;0.50;;
2029;SDS011;1020;48.854;8.830;2022-09-09T13:02:00;2.20;;;0.73;;
2029;SDS011;1020;48.854;8.830;2022-09-09T13:04:27;0.63;;;0.50;;
2029;SDS011;1020;48.854;8.830;2022-09-09T13:06:54;0.80;;;0.53;;
2029;SDS011;1020;48.854;8.830;2022-09-09T13:09:35;0.63;;;0.50;;
2029;SDS011;1020;48.854;8.830;2022-09-09T13:12:02;0.70;;;0.57;;
2029;SDS011;1020;48.854;8.830;2022-09-09T13:14:33;1.33;;;0.73;;
2029;SDS011;1020;48.854;8.830;2022-09-09T13:17:03;1.67;;;0.70;;
2029;SDS011;1020;48.854;8.830;2022-09-09T13:19:32;0.73;;;0.73;;
2029;SDS011;1020;48.854;8.830;2022-09-09T13:22:12;1.50;;;0.70;;
2029;SDS011;1020;48.854;8.830;2022-09-09T13:24:40;1.07;;;0.60;;
2029;SDS011;1020;48.854;8.830;2022-09-09T13:27:20;0.77;;;0.43;;
2029;SDS011;1020;48.854;8.830;2022-09-09T13:29:52;0.90;;;0.67;;
2029;SDS011;1020;48.854;8.830;2022-09-09T13:32:22;0.73;;;0.50;;
2029;SDS011;1020;48.854;8.830;2022-09-09T13:34:50;0.83;;;0.50;;
2029;SDS011;1020;48.854;8.830;2022-09-09T13:37:21;1.50;;;0.70;;
2029;SDS011;1020;48.854;8.830;2022-09-09T13:39:52;1.23;;;0.60;;
2029;SDS011;1020;48.854;8.830;2022-09-09T13:42:24;0.90;;;0.57;;
2029;SDS011;1020;48.854;8.830;2022-09-09T13:44:52;1.70;;;0.60;;
2029;SDS011;1020;48.854;8.830;2022-09-09T13:47:21;1.00;;;0.50;;
2029;SDS011;1020;48.854;8.830;2022-09-09T13:49:53;0.50;;;0.40;;
2029;SDS011;1020;48.854;8.830;2022-09-09T13:52:21;1.23;;;0.50;;
2029;SDS011;1020;48.854;8.830;2022-09-09T13:54:48;0.60;;;0.57;;
2029;SDS011;1020;48.854;8.830;2022-09-09T13:57:16;2.17;;;0.70;;
2029;SDS011;1020;48.854;8.830;2022-09-09T13:59:44;2.10;;;0.67;;
2029;SDS011;1020;48.854;8.830;2022-09-09T14:02:11;1.20;;;0.50;;
2029;SDS011;1020;48.854;8.830;2022-09-09T14:04:38;2.03;;;0.90;;
2029;SDS011;1020;48.854;8.830;2022-09-09T14:07:07;1.63;;;0.50;;
2029;SDS011;1020;48.854;8.830;2022-09-09T14:09:38;0.80;;;0.60;;
2029;SDS011;1020;48.854;8.830;2022-09-09T14:12:05;0.67;;;0.53;;
2029;SDS011;1020;48.854;8.830;2022-09-09T14:14:34;1.53;;;0.60;;
2029;SDS011;1020;48.854;8.830;2022-09-09T14:17:01;1.00;;;0.50;;
2029;SDS011;1020;48.854;8.830;2022-09-09T14:19:28;0.80;;;0.60;;
2029;SDS011;1020;48.854;8.830;2022-09-09T14:21:55;1.80;;;0.80;;
2029;SDS011;1020;48.854;8.830;2022-09-09T14:24:22;1.07;;;0.60;;
2029;SDS011;1020;48.854;8.830;2022-09-09T14:26:51;1.00;;;0.70;;
2029;SDS011;1020;48.854;8.830;2022-09-09T14:29:18;1.47;;;0.80;;
2029;SDS011;1020;48.854;8.830;2022-09-09T14:31:44;0.50;;;0.50;;
2029;SDS011;1020;48.854;8.830;2022-09-09T14:34:11;1.03;;;0.60;;
2029;SDS011;1020;48.854;8.830;2022-09-09T14:36:39;1.33;;;0.50;;
2029;SDS011;1020;48.854;8.830;2022-09-09T14:39:06;0.83;;;0.50;;
2029;SDS011;1020;48.854;8.830;2022-09-09T14:41:33;1.33;;;0.73;;
2029;SDS011;1020;48.854;8.830;2022-09-09T14:44:01;1.23;;;0.40;;
2029;SDS011;1020;48.854;8.830;2022-09-09T14:46:28;0.60;;;0.40;;
2029;SDS011;1020;48.854;8.830;2022-09-09T14:48:56;1.70;;;0.80;;
2029;SDS011;1020;48.854;8.830;2022-09-09T14:51:23;0.73;;;0.50;;
2029;SDS011;1020;48.854;8.830;2022-09-09T14:53:52;0.50;;;0.50;;
2029;SDS011;1020;48.854;8.830;2022-09-09T14:56:21;1.03;;;0.60;;
2029;SDS011;1020;48.854;8.830;2022-09-09T14:58:49;1.27;;;0.50;;
2029;SDS011;1020;48.854;8.830;2022-09-09T15:01:19;0.90;;;0.60;;
2029;SDS011;1020;48.854;8.830;2022-09-09T15:03:48;0.60;;;0.50;;
2029;SDS011;1020;48.854;8.830;2022-09-09T15:06:16;1.17;;;0.60;;
2029;SDS011;1020;48.854;8.830;2022-09-09T15:08:43;0.47;;;0.47;;
2029;SDS011;1020;48.854;8.830;2022-09-09T15:11:12;0.77;;;0.70;;
2029;SDS011;1020;48.854;8.830;2022-09-09T15:13:40;1.17;;;0.70;;
2029;SDS011;1020;48.854;8.830;2022-09-09T15:16:09;1.20;;;0.50;;
2029;SDS011;1020;48.854;8.830;2022-09-09T15:18:38;1.23;;;0.70;;
2029;SDS011;1020;48.854;8.830;2022-09-09T15:21:08;2.00;;;0.90;;
2029;SDS011;1020;48.854;8.830;2022-09-09T15:23:35;1.10;;;0.83;;
2029;SDS011;1020;48.854;8.830;2022-09-09T15:26:02;3.57;;;0.80;;
2029;SDS011;1020;48.854;8.830;2022-09-09T15:28:29;1.50;;;0.83;;
2029;SDS011;1020;48.854;8.830;2022-09-09T15:30:58;0.67;;;0.67;;
2029;SDS011;1020;48.854;8.830;2022-09-09T15:33:31;1.43;;;0.50;;
2029;SDS011;1020;48.854;8.830;2022-09-09T15:35:59;2.40;;;0.70;;
2029;SDS011;1020;48.854;8.830;2022-09-09T15:38:26;0.97;;;0.73;;
2029;SDS011;1020;48.854;8.830;2022-09-09T15:40:53;0.70;;;0.60;;
2029;SDS011;1020;48.854;8.830;2022-09-09T15:43:20;1.80;;;0.50;;
2029;SDS011;1020;48.854;8.830;2022-09-09T15:45:49;1.57;;;0.80;;